createdAt,value
2022-07-28T00:01:11.774Z,86.00
2022-07-28T00:03:41.027Z,85.20
2022-07-28T00:06:09.718Z,85.90
2022-07-28T00:08:38.836Z,85.80
2022-07-28T00:11:06.775Z,86.00
2022-07-28T00:13:34.813Z,86.00
2022-07-28T00:16:02.822Z,86.40
2022-07-28T00:18:30.885Z,85.80
2022-07-28T00:21:00.189Z,86.00
2022-07-28T00:23:35.873Z,86.40
2022-07-28T00:26:08.691Z,86.50
2022-07-28T00:28:36.704Z,86.80
2022-07-28T00:31:05.799Z,86.40
2022-07-28T00:33:40.050Z,87.10
2022-07-28T00:36:11.644Z,86.90
2022-07-28T00:38:44.078Z,87.40
2022-07-28T00:41:12.818Z,87.30
2022-07-28T00:43:42.483Z,86.90
2022-07-28T00:46:11.985Z,86.90
2022-07-28T00:48:41.277Z,87.60
2022-07-28T00:51:11.787Z,87.20
2022-07-28T00:53:40.166Z,87.40
2022-07-28T00:56:08.675Z,86.70
2022-07-28T00:58:37.179Z,87.10
2022-07-28T01:01:05.778Z,86.50
2022-07-28T01:03:35.810Z,86.80
2022-07-28T01:06:16.421Z,86.60
2022-07-28T01:08:57.079Z,86.80
2022-07-28T01:11:32.792Z,87.30
2022-07-28T01:14:17.953Z,87.90
2022-07-28T01:16:54.877Z,87.70
2022-07-28T01:19:40.700Z,87.50
2022-07-28T01:22:13.929Z,87.50
2022-07-28T01:24:50.634Z,87.10
2022-07-28T01:27:38.909Z,87.90
2022-07-28T01:30:11.989Z,87.80
2022-07-28T01:32:47.042Z,87.60
2022-07-28T01:35:18.067Z,87.90
2022-07-28T01:37:50.606Z,87.60
2022-07-28T01:40:22.189Z,87.50
2022-07-28T01:42:53.461Z,87.40
2022-07-28T01:45:23.385Z,87.60
2022-07-28T01:47:55.257Z,88.10
2022-07-28T01:50:25.670Z,88.40
2022-07-28T01:52:55.126Z,89.70
2022-07-28T01:55:25.955Z,89.30
2022-07-28T01:57:56.503Z,89.80
2022-07-28T02:00:27.791Z,90.00
2022-07-28T02:02:59.025Z,90.30
2022-07-28T02:05:29.316Z,90.20
2022-07-28T02:08:00.143Z,90.30
2022-07-28T02:10:29.683Z,90.50
2022-07-28T02:13:00.584Z,90.70
2022-07-28T02:15:30.627Z,90.70
2022-07-28T02:18:00.727Z,90.90
2022-07-28T02:20:30.161Z,90.80
2022-07-28T02:22:59.063Z,90.90
2022-07-28T02:25:27.151Z,91.00
2022-07-28T02:27:59.402Z,91.10
2022-07-28T02:30:35.188Z,91.20
2022-07-28T02:33:09.472Z,91.40
2022-07-28T02:35:45.722Z,91.50
2022-07-28T02:38:22.153Z,91.60
2022-07-28T02:40:52.401Z,91.70
2022-07-28T02:43:26.375Z,91.80
2022-07-28T02:46:19.398Z,92.00
2022-07-28T02:48:53.739Z,92.10
2022-07-28T02:51:24.727Z,92.10
2022-07-28T02:53:54.072Z,92.20
2022-07-28T02:56:23.077Z,92.30
2022-07-28T02:58:52.520Z,92.40
2022-07-28T03:01:21.398Z,92.50
2022-07-28T03:03:55.369Z,92.60
2022-07-28T03:06:26.625Z,92.70
2022-07-28T03:08:56.942Z,92.80
2022-07-28T03:11:24.893Z,93.00
2022-07-28T03:13:53.398Z,93.00
2022-07-28T03:16:21.586Z,93.10
2022-07-28T03:18:52.456Z,93.20
2022-07-28T03:21:20.492Z,93.20
2022-07-28T03:23:49.786Z,93.40
2022-07-28T03:26:24.451Z,93.40
2022-07-28T03:28:54.101Z,93.50
2022-07-28T03:31:23.076Z,93.60
2022-07-28T03:33:53.070Z,93.70
2022-07-28T03:36:30.216Z,93.80
2022-07-28T03:39:03.859Z,93.90
2022-07-28T03:41:34.509Z,93.90
2022-07-28T03:44:03.533Z,94.00
2022-07-28T03:46:31.796Z,94.00
2022-07-28T03:49:01.155Z,94.40
2022-07-28T03:51:29.634Z,94.20
2022-07-28T03:53:57.586Z,94.30
2022-07-28T03:56:25.519Z,94.30
2022-07-28T03:58:53.472Z,94.30
2022-07-28T04:01:21.496Z,94.30
2022-07-28T04:03:49.558Z,94.50
2022-07-28T04:06:19.114Z,94.40
2022-07-28T04:08:47.106Z,94.40
2022-07-28T04:11:15.112Z,94.60
2022-07-28T04:13:43.059Z,94.70
2022-07-28T04:16:10.968Z,94.80
2022-07-28T04:18:39.555Z,94.90
2022-07-28T04:21:08.199Z,94.80
2022-07-28T04:23:37.484Z,94.90
2022-07-28T04:26:05.631Z,95.00
2022-07-28T04:28:33.585Z,95.10
2022-07-28T04:31:01.646Z,95.10
2022-07-28T04:33:30.467Z,95.20
2022-07-28T04:35:58.491Z,95.20
2022-07-28T04:38:26.396Z,95.30
2022-07-28T04:40:56.140Z,95.40
2022-07-28T04:43:24.263Z,95.50
2022-07-28T04:45:54.087Z,95.50
2022-07-28T04:48:23.130Z,95.60
2022-07-28T04:50:52.530Z,95.60
2022-07-28T04:53:20.814Z,95.80
2022-07-28T04:55:49.398Z,95.90
2022-07-28T04:58:19.376Z,95.90
2022-07-28T05:00:50.003Z,96.00
2022-07-28T05:03:18.701Z,96.00
2022-07-28T05:05:47.472Z,96.00
2022-07-28T05:08:26.248Z,96.00
2022-07-28T05:10:55.218Z,96.00
2022-07-28T05:13:26.791Z,96.00
2022-07-28T05:15:57.066Z,96.10
2022-07-28T05:18:25.084Z,96.10
2022-07-28T05:20:52.994Z,96.40
2022-07-28T05:23:20.963Z,96.00
2022-07-28T05:25:49.134Z,96.00
2022-07-28T05:28:17.182Z,95.90
2022-07-28T05:30:46.533Z,95.80
2022-07-28T05:33:16.389Z,95.70
2022-07-28T05:35:44.749Z,95.70
2022-07-28T05:38:14.471Z,95.70
2022-07-28T05:40:42.407Z,95.80
2022-07-28T05:43:10.335Z,95.70
2022-07-28T05:45:38.303Z,95.70
2022-07-28T05:48:08.245Z,95.40
2022-07-28T05:50:36.322Z,95.40
2022-07-28T05:53:04.307Z,95.20
2022-07-28T05:55:32.320Z,95.10
2022-07-28T05:58:00.756Z,95.00
2022-07-28T06:00:29.050Z,95.00
2022-07-28T06:03:01.889Z,94.80
2022-07-28T06:05:32.191Z,95.00
2022-07-28T06:08:00.781Z,94.80
2022-07-28T06:10:51.607Z,94.80
2022-07-28T06:13:20.059Z,94.60
2022-07-28T06:15:48.643Z,94.70
2022-07-28T06:18:17.141Z,95.00
2022-07-28T06:20:47.313Z,94.90
2022-07-28T06:23:18.134Z,94.80
2022-07-28T06:25:46.201Z,94.90
2022-07-28T06:28:14.470Z,95.00
2022-07-28T06:30:42.679Z,95.10
2022-07-28T06:33:15.299Z,95.60
2022-07-28T06:35:51.404Z,95.30
2022-07-28T06:38:20.300Z,95.40
2022-07-28T06:40:49.803Z,95.60
2022-07-28T06:43:17.788Z,95.50
2022-07-28T06:45:46.099Z,95.30
2022-07-28T06:48:14.701Z,95.50
2022-07-28T06:50:43.062Z,95.30
2022-07-28T06:53:12.586Z,95.30
2022-07-28T06:55:41.215Z,95.20
2022-07-28T06:58:09.671Z,95.30
2022-07-28T07:00:37.807Z,95.30
2022-07-28T07:03:09.654Z,95.30
2022-07-28T07:05:37.936Z,95.30
2022-07-28T07:08:06.479Z,95.30
2022-07-28T07:10:36.359Z,95.30
2022-07-28T07:13:04.757Z,95.30
2022-07-28T07:15:34.871Z,95.30
2022-07-28T07:18:03.102Z,95.40
2022-07-28T07:20:31.093Z,95.20
2022-07-28T07:22:59.262Z,95.30
2022-07-28T07:25:27.356Z,95.30
2022-07-28T07:27:56.857Z,95.30
2022-07-28T07:30:24.988Z,95.50
2022-07-28T07:32:53.004Z,95.20
2022-07-28T07:35:21.094Z,95.40
2022-07-28T07:37:49.026Z,95.50
2022-07-28T07:40:17.111Z,95.30
2022-07-28T07:42:45.077Z,95.20
2022-07-28T07:45:15.076Z,95.10
2022-07-28T07:47:43.109Z,95.20
2022-07-28T07:50:11.256Z,95.10
2022-07-28T07:52:39.391Z,95.10
2022-07-28T07:55:08.509Z,95.20
2022-07-28T07:57:36.502Z,95.30
2022-07-28T08:00:04.980Z,95.20
2022-07-28T08:02:34.384Z,95.30
2022-07-28T08:05:02.417Z,95.10
2022-07-28T08:07:30.989Z,95.20
2022-07-28T08:09:59.009Z,95.00
2022-07-28T08:12:26.921Z,94.90
2022-07-28T08:14:55.088Z,94.80
2022-07-28T08:17:25.847Z,94.90
2022-07-28T08:19:56.405Z,94.80
2022-07-28T08:22:24.878Z,94.60
2022-07-28T08:24:53.077Z,94.60
2022-07-28T08:27:21.040Z,94.70
2022-07-28T08:29:49.085Z,94.70
2022-07-28T08:32:17.191Z,94.80
2022-07-28T08:34:45.270Z,94.40
2022-07-28T08:37:14.531Z,94.50
2022-07-28T08:39:42.505Z,94.20
2022-07-28T08:42:16.329Z,94.40
2022-07-28T08:44:52.483Z,94.00
2022-07-28T08:47:21.853Z,93.20
2022-07-28T08:49:50.648Z,92.70
2022-07-28T08:52:22.514Z,92.50
2022-07-28T08:54:51.771Z,92.30
2022-07-28T08:57:23.486Z,91.70
2022-07-28T08:59:52.458Z,91.30
2022-07-28T09:02:21.245Z,91.40
2022-07-28T09:04:50.883Z,91.10
2022-07-28T09:07:20.490Z,90.70
2022-07-28T09:09:50.588Z,90.60
2022-07-28T09:12:18.848Z,90.30
2022-07-28T09:14:54.819Z,90.10
2022-07-28T09:17:22.851Z,90.00
2022-07-28T09:19:50.854Z,90.00
2022-07-28T09:22:20.194Z,89.20
2022-07-28T09:24:48.146Z,89.00
2022-07-28T09:27:17.051Z,88.30
2022-07-28T09:29:49.090Z,87.20
2022-07-28T09:32:20.484Z,86.90
2022-07-28T09:34:51.717Z,86.50
2022-07-28T09:37:27.135Z,86.10
2022-07-28T09:39:59.159Z,86.30
2022-07-28T09:42:45.501Z,84.70
2022-07-28T09:45:22.942Z,83.90
2022-07-28T09:48:10.712Z,83.50
2022-07-28T09:50:39.912Z,82.60
2022-07-28T09:53:28.688Z,83.40
2022-07-28T09:55:58.718Z,83.00
2022-07-28T09:58:27.100Z,83.20
2022-07-28T10:01:08.039Z,82.70
2022-07-28T10:03:37.829Z,81.50
2022-07-28T10:06:08.382Z,80.30
2022-07-28T10:08:46.073Z,80.10
2022-07-28T10:11:16.236Z,78.90
2022-07-28T10:13:54.213Z,77.90
2022-07-28T10:16:23.076Z,77.50
2022-07-28T10:18:51.118Z,76.70
2022-07-28T10:21:20.525Z,76.70
2022-07-28T10:23:51.999Z,76.00
2022-07-28T10:26:23.220Z,75.40
2022-07-28T10:28:53.080Z,76.40
2022-07-28T10:31:32.624Z,76.40
2022-07-28T10:34:02.374Z,75.10
2022-07-28T10:36:33.245Z,74.40
2022-07-28T10:39:07.615Z,73.90
2022-07-28T10:41:41.628Z,73.60
2022-07-28T10:44:14.063Z,72.60
2022-07-28T10:46:46.351Z,72.30
2022-07-28T10:49:15.593Z,71.10
2022-07-28T10:52:04.866Z,70.00
2022-07-28T10:54:47.776Z,69.90
2022-07-28T10:57:17.335Z,69.20
2022-07-28T11:00:12.235Z,69.30
2022-07-28T11:02:50.256Z,68.80
2022-07-28T11:05:28.298Z,69.00
2022-07-28T11:07:57.261Z,68.10
2022-07-28T11:10:26.623Z,67.20
2022-07-28T11:12:56.823Z,66.50
2022-07-28T11:15:33.820Z,66.50
2022-07-28T11:18:05.678Z,66.20
2022-07-28T11:21:08.559Z,65.90
2022-07-28T11:23:55.368Z,66.00
2022-07-28T11:26:38.813Z,65.90
2022-07-28T11:29:15.837Z,64.40
2022-07-28T11:31:57.736Z,63.10
2022-07-28T11:34:26.561Z,63.80
2022-07-28T11:37:02.681Z,62.70
2022-07-28T11:39:42.974Z,62.60
2022-07-28T11:42:32.277Z,62.00
2022-07-28T11:45:37.462Z,61.70
2022-07-28T11:48:14.939Z,61.30
2022-07-28T11:50:43.229Z,61.50
2022-07-28T11:53:11.794Z,61.10
2022-07-28T11:55:55.580Z,61.50
2022-07-28T11:58:29.634Z,61.00
2022-07-28T12:01:17.165Z,61.50
2022-07-28T12:03:50.156Z,60.80
2022-07-28T12:06:28.473Z,60.60
2022-07-28T12:08:58.998Z,60.70
2022-07-28T12:11:28.978Z,60.10
2022-07-28T12:14:02.569Z,59.60
2022-07-28T12:16:31.728Z,59.90
2022-07-28T12:19:01.679Z,60.50
2022-07-28T12:21:46.537Z,60.70
2022-07-28T12:24:19.364Z,62.10
2022-07-28T12:26:50.001Z,62.60
2022-07-28T12:29:20.437Z,62.70
2022-07-28T12:31:55.203Z,63.20
2022-07-28T12:34:24.169Z,64.10
2022-07-28T12:36:58.055Z,64.40
2022-07-28T12:39:26.542Z,64.30
2022-07-28T12:42:03.543Z,64.30
2022-07-28T12:44:41.234Z,64.10
2022-07-28T12:47:11.965Z,64.50
2022-07-28T12:49:42.045Z,64.50
2022-07-28T12:52:17.048Z,64.70
2022-07-28T12:54:53.340Z,64.60
2022-07-28T12:57:48.164Z,64.90
2022-07-28T13:00:21.835Z,65.30
2022-07-28T13:02:50.974Z,64.60
2022-07-28T13:05:29.529Z,64.50
2022-07-28T13:08:02.645Z,64.40
2022-07-28T13:10:31.226Z,64.70
2022-07-28T13:13:04.005Z,64.80
2022-07-28T13:15:33.661Z,64.20
2022-07-28T13:18:02.068Z,64.10
2022-07-28T13:20:34.450Z,64.20
2022-07-28T13:23:02.420Z,64.20
2022-07-28T13:25:30.469Z,64.20
2022-07-28T13:28:00.179Z,63.60
2022-07-28T13:30:28.216Z,63.70
2022-07-28T13:32:58.552Z,64.20
2022-07-28T13:35:26.578Z,64.40
2022-07-28T13:37:54.534Z,64.80
2022-07-28T13:40:22.688Z,64.70
2022-07-28T13:42:53.285Z,64.70
2022-07-28T13:45:24.966Z,64.70
2022-07-28T13:47:59.397Z,64.50
2022-07-28T13:50:27.435Z,64.70
2022-07-28T13:52:55.445Z,64.90
2022-07-28T13:55:23.625Z,65.30
2022-07-28T13:57:55.128Z,65.10
2022-07-28T14:00:24.936Z,65.80
2022-07-28T14:02:53.071Z,66.90
2022-07-28T14:05:22.964Z,66.50
2022-07-28T14:07:51.530Z,66.80
2022-07-28T14:10:19.460Z,66.80
2022-07-28T14:12:47.403Z,66.80
2022-07-28T14:15:16.114Z,66.80
2022-07-28T14:17:46.080Z,66.40
2022-07-28T14:20:15.469Z,66.10
2022-07-28T14:22:46.524Z,66.00
2022-07-28T14:25:19.683Z,65.80
2022-07-28T14:27:49.486Z,66.60
2022-07-28T14:30:17.960Z,67.10
2022-07-28T14:32:45.897Z,67.10
2022-07-28T14:35:13.896Z,67.10
2022-07-28T14:38:23.180Z,67.00
2022-07-28T14:40:31.972Z,67.00
2022-07-28T14:43:00.892Z,66.70
2022-07-28T14:45:29.808Z,66.50
2022-07-28T14:47:57.989Z,66.50
2022-07-28T14:50:26.844Z,66.50
2022-07-28T14:52:54.964Z,66.80
2022-07-28T14:55:22.961Z,67.00
2022-07-28T14:57:55.019Z,67.10
2022-07-28T15:00:24.657Z,67.30
2022-07-28T15:02:53.586Z,66.90
2022-07-28T15:05:22.747Z,67.20
2022-07-28T15:07:52.125Z,66.90
2022-07-28T15:10:20.702Z,66.90
2022-07-28T15:12:49.976Z,67.20
2022-07-28T15:15:21.217Z,66.70
2022-07-28T15:17:49.219Z,66.40
2022-07-28T15:20:17.275Z,66.30
2022-07-28T15:22:45.179Z,65.60
2022-07-28T15:25:13.215Z,65.10
2022-07-28T15:27:45.590Z,64.10
2022-07-28T15:30:14.218Z,64.40
2022-07-28T15:32:56.899Z,65.00
2022-07-28T15:35:25.824Z,65.30
2022-07-28T15:37:54.293Z,66.80
2022-07-28T15:40:22.493Z,66.20
2022-07-28T15:42:50.485Z,65.00
2022-07-28T15:45:18.609Z,64.50
2022-07-28T15:47:47.873Z,64.20
2022-07-28T15:50:15.863Z,65.20
2022-07-28T15:52:43.823Z,64.90
2022-07-28T15:55:11.815Z,64.60
2022-07-28T15:57:39.828Z,64.60
2022-07-28T16:00:10.035Z,64.90
2022-07-28T16:02:38.277Z,65.00
2022-07-28T16:05:08.262Z,65.00
2022-07-28T16:07:36.245Z,64.90
2022-07-28T16:10:04.960Z,64.80
2022-07-28T16:12:33.335Z,65.80
2022-07-28T16:15:01.760Z,64.70
2022-07-28T16:17:29.730Z,63.80
2022-07-28T16:20:02.471Z,63.50
2022-07-28T16:22:32.229Z,63.50
2022-07-28T16:25:00.191Z,63.40
2022-07-28T16:27:28.373Z,63.70
2022-07-28T16:29:56.432Z,63.40
2022-07-28T16:32:24.809Z,63.00
2022-07-28T16:34:53.997Z,63.20
2022-07-28T16:37:22.371Z,63.50
2022-07-28T16:39:51.757Z,63.10
2022-07-28T16:42:19.759Z,63.60
2022-07-28T16:44:47.896Z,63.90
2022-07-28T16:47:16.150Z,63.60
2022-07-28T16:49:46.398Z,63.50
2022-07-28T16:52:14.865Z,63.70
2022-07-28T16:54:43.005Z,64.20
2022-07-28T16:57:12.390Z,63.70
2022-07-28T16:59:47.717Z,63.50
2022-07-28T17:02:17.393Z,63.60
2022-07-28T17:04:45.351Z,63.20
2022-07-28T17:07:13.827Z,63.50
2022-07-28T17:09:41.888Z,62.90
2022-07-28T17:12:10.155Z,62.50
2022-07-28T17:14:39.544Z,62.40
2022-07-28T17:17:07.547Z,63.10
2022-07-28T17:19:35.530Z,62.90
2022-07-28T17:22:06.819Z,62.80
2022-07-28T17:24:35.012Z,63.20
2022-07-28T17:27:37.967Z,63.40
2022-07-28T17:29:52.486Z,63.60
2022-07-28T17:32:20.518Z,63.70
2022-07-28T17:34:48.584Z,63.70
2022-07-28T17:37:16.610Z,63.90
2022-07-28T17:39:44.648Z,63.90
2022-07-28T17:42:12.621Z,64.10
2022-07-28T17:44:40.589Z,64.20
2022-07-28T17:47:11.288Z,64.30
2022-07-28T17:49:43.547Z,65.20
2022-07-28T17:52:13.451Z,64.60
2022-07-28T17:54:59.193Z,64.70
2022-07-28T17:57:31.023Z,64.50
2022-07-28T18:00:06.965Z,64.70
2022-07-28T18:02:37.403Z,64.60
2022-07-28T18:05:05.565Z,64.60
2022-07-28T18:07:50.170Z,64.80
2022-07-28T18:10:20.241Z,64.80
2022-07-28T18:12:53.180Z,64.90
2022-07-28T18:15:21.272Z,65.30
2022-07-28T18:17:55.124Z,65.50
2022-07-28T18:20:24.338Z,65.60
2022-07-28T18:22:52.445Z,66.10
2022-07-28T18:25:20.595Z,66.20
2022-07-28T18:27:48.731Z,66.60
2022-07-28T18:30:19.275Z,67.00
2022-07-28T18:32:47.252Z,66.80
2022-07-28T18:35:17.039Z,66.40
2022-07-28T18:37:46.165Z,65.60
2022-07-28T18:40:15.970Z,65.30
2022-07-28T18:42:44.203Z,64.80
2022-07-28T18:45:13.515Z,65.00
2022-07-28T18:47:46.532Z,65.30
2022-07-28T18:50:31.188Z,65.50
2022-07-28T18:53:00.401Z,65.50
2022-07-28T18:55:28.521Z,66.80
2022-07-28T18:57:56.577Z,66.80
2022-07-28T19:00:24.768Z,66.80
2022-07-28T19:02:53.002Z,65.70
2022-07-28T19:05:22.752Z,66.40
2022-07-28T19:07:51.109Z,66.90
2022-07-28T19:10:19.480Z,66.50
2022-07-28T19:12:48.173Z,66.50
2022-07-28T19:15:16.190Z,66.10
2022-07-28T19:17:44.167Z,67.00
2022-07-28T19:20:12.757Z,67.30
2022-07-28T19:22:42.711Z,67.90
2022-07-28T19:25:11.448Z,68.20
2022-07-28T19:27:40.207Z,67.80
2022-07-28T19:30:10.488Z,67.40
2022-07-28T19:32:41.587Z,67.50
2022-07-28T19:35:10.457Z,68.00
2022-07-28T19:37:39.038Z,68.20
2022-07-28T19:40:10.565Z,67.60
2022-07-28T19:42:38.506Z,67.90
2022-07-28T19:45:07.699Z,68.50
2022-07-28T19:47:36.928Z,67.80
2022-07-28T19:50:06.071Z,68.20
2022-07-28T19:52:34.754Z,67.80
2022-07-28T19:55:10.127Z,68.30
2022-07-28T19:57:39.964Z,67.10
2022-07-28T20:00:09.449Z,67.50
2022-07-28T20:02:37.783Z,66.50
2022-07-28T20:05:06.375Z,66.50
2022-07-28T20:07:34.355Z,65.80
2022-07-28T20:10:02.506Z,65.20
2022-07-28T20:12:36.148Z,65.00
2022-07-28T20:15:06.908Z,64.30
2022-07-28T20:17:38.905Z,64.10
2022-07-28T20:20:08.950Z,64.40
2022-07-28T20:22:37.586Z,64.30
2022-07-28T20:25:09.311Z,64.10
2022-07-28T20:27:40.057Z,63.80
2022-07-28T20:30:11.465Z,64.40
2022-07-28T20:32:40.574Z,65.30
2022-07-28T20:35:12.195Z,68.10
2022-07-28T20:37:40.784Z,81.80
2022-07-28T20:40:10.211Z,82.30
2022-07-28T20:42:38.446Z,85.10
2022-07-28T20:45:07.555Z,87.00
2022-07-28T20:47:36.869Z,88.70
2022-07-28T20:50:07.058Z,90.10
2022-07-28T20:52:35.127Z,91.00
2022-07-28T20:55:04.442Z,91.60
2022-07-28T20:57:32.495Z,92.50
2022-07-28T21:00:00.579Z,93.10
2022-07-28T21:02:28.558Z,93.10
2022-07-28T21:04:57.864Z,93.10
2022-07-28T21:08:04.914Z,93.00
2022-07-28T21:10:14.463Z,93.60
2022-07-28T21:12:42.529Z,94.60
2022-07-28T21:15:11.323Z,95.40
2022-07-28T21:17:39.340Z,96.00
2022-07-28T21:20:09.858Z,96.30
2022-07-28T21:22:37.788Z,96.60
2022-07-28T21:25:07.339Z,96.90
2022-07-28T21:27:49.170Z,97.60
2022-07-28T21:30:17.183Z,97.70
2022-07-28T21:32:45.258Z,98.10
2022-07-28T21:35:14.613Z,98.30
2022-07-28T21:37:42.564Z,98.80
2022-07-28T21:40:11.442Z,99.30
2022-07-28T21:42:39.415Z,99.80
2022-07-28T21:45:11.193Z,99.90
2022-07-28T21:47:39.473Z,99.90
2022-07-28T21:50:08.113Z,99.80
2022-07-28T21:52:38.332Z,99.90
2022-07-28T21:55:08.777Z,99.90
2022-07-28T21:57:37.026Z,99.90
2022-07-28T22:00:09.021Z,99.90
2022-07-28T22:02:41.117Z,99.90
2022-07-28T22:05:09.923Z,99.90
2022-07-28T22:07:39.273Z,99.90
2022-07-28T22:10:07.784Z,99.90
2022-07-28T22:12:35.829Z,99.90
2022-07-28T22:15:03.843Z,99.90
2022-07-28T22:17:31.898Z,99.90
2022-07-28T22:20:00.133Z,99.90
2022-07-28T22:22:28.149Z,99.90
2022-07-28T22:24:57.465Z,99.90
2022-07-28T22:27:25.461Z,99.90
2022-07-28T22:29:53.851Z,99.90
2022-07-28T22:32:28.733Z,99.90
2022-07-28T22:34:57.702Z,99.90
2022-07-28T22:37:25.693Z,99.90
2022-07-28T22:39:53.708Z,99.90
2022-07-28T22:42:23.360Z,99.90
2022-07-28T22:44:51.543Z,99.90
2022-07-28T22:47:19.502Z,99.90
2022-07-28T22:49:47.676Z,99.90
2022-07-28T22:52:15.782Z,99.90
2022-07-28T22:54:43.993Z,99.90
2022-07-28T22:57:11.954Z,99.90
2022-07-28T22:59:42.076Z,99.90
2022-07-28T23:02:15.023Z,99.90
2022-07-28T23:04:45.821Z,99.90
2022-07-28T23:07:16.670Z,99.90
2022-07-28T23:09:46.290Z,99.90
2022-07-28T23:12:14.444Z,99.90
2022-07-28T23:14:43.752Z,99.90
2022-07-28T23:17:11.742Z,99.90
2022-07-28T23:19:39.704Z,99.90
2022-07-28T23:22:07.686Z,99.90
2022-07-28T23:24:35.699Z,99.90
2022-07-28T23:27:03.619Z,99.90
2022-07-28T23:29:31.517Z,99.90
2022-07-28T23:32:00.845Z,99.90
2022-07-28T23:34:28.796Z,99.90
2022-07-28T23:36:56.724Z,99.90
2022-07-28T23:39:24.672Z,99.90
2022-07-28T23:41:52.636Z,99.90
2022-07-28T23:44:20.525Z,99.90
2022-07-28T23:46:48.591Z,99.90
2022-07-28T23:49:18.452Z,99.90
2022-07-28T23:51:48.166Z,99.90
2022-07-28T23:54:17.384Z,99.90
2022-07-28T23:56:45.998Z,99.90
2022-07-28T23:59:14.878Z,99.90
